Nearby METAR Reports

 

EGNM - Leeds And Bradford, United Kingdom
Distance from station: N 11mi, 18km
Updated: 21/01/2018 16:20
Light freezing, Rain, Mist, Mostly cloudy
Light freezing, Rain, Mist, Mostly cloudy
 Wind from SE
Wind: SE 12 mph , 19 km/h
Temperature: 0°C
Wind Chill: -5°C
Dew Point: 0°C
Humidity: 100%
Barometer: 1003 hPa
Summary: Light freezing, Rain, Mist
Clouds: Mostly cloudy
Visibility: 1 mile , 2 km
Cloud details: Mostly cloudy 122 m
2018/01/21 16:20 EGNM 211620Z 14010KT 2000 -FZRA BR BKN004 00/M00 Q1003
EGXG - Church Fenton, United Kingdom
Distance from station: ENE 19mi, 31km
Updated: 19/12/2013 08:50
NOT Current
Clear
Clear
 Wind from SW
Wind: SW 16 mph , 26 km/h
Temperature: 4°C
Wind Chill: -1°C
Dew Point: -1°C
Humidity: 70%
Barometer: 996 hPa
Clouds: Clear
Visibility: 6 miles , 10 km
2013/12/19 08:50 EGXG 190850Z AUTO 23014KT 9999 NCD 04/M01 Q0996
 
EGXU - Linton-On-Ouse, United Kingdom
Distance from station: NNE 28mi, 45km
Updated: 21/01/2018 15:50
Mostly cloudy
Mostly cloudy
 Wind from SSE
Wind: SSE 14 mph , 22 km/h
Temperature: 1°C
Wind Chill: -4°C
Dew Point: 0°C
Humidity: 93%
Barometer: 1006 hPa
Clouds: Mostly cloudy
Visibility: 3 miles , 5 km
Cloud details: Mostly cloudy 183 m
2018/01/21 15:50 EGXU 211550Z AUTO 15012KT 5000 // BKN006/// 01/00 Q1006
EGCN - Doncaster Sheffield, United Kingdom
Distance from station: ESE 30mi, 45km
Updated: 21/01/2018 16:50
Light rain, Mostly cloudy
Light rain, Mostly cloudy
 Wind from SSE
Wind: SSE 13 mph , 20 km/h
Temperature: 2°C
Wind Chill: -3°C
Dew Point: 1°C
Humidity: 93%
Barometer: 1006 hPa
Summary: Light rain
Clouds: Mostly cloudy
Visibility: 4 miles , 7 km
Cloud details: Partly cloudy 152 m
Mostly cloudy 244 m
2018/01/21 16:50 EGCN 211650Z 16011KT 7000 -RA SCT005 BKN008 02/01 Q1006
 
EGXD - Dishforth RAF, United Kingdom
Distance from station: NNE 31mi, 49km
Updated: 06/06/2016 10:50
NOT Current
Clear
Clear
 Wind from SSE
Wind: SSE 5 mph , 7 km/h
Temperature: 18°C
Dew Point: 11°C
Humidity: 64%
Barometer: 1023 hPa
Clouds: Clear
Visibility: 6 miles , 10 km
2016/06/06 09:50 EGXD 060950Z AUTO 16004KT 9999 // NCD 18/11 Q1023
EGXZ - Topcliffe RAF, United Kingdom
Distance from station: NNE 36mi, 57km
Updated: 21/01/2018 15:50

 Wind from SSE
Wind: SSE 21 mph , 33 km/h
Visibility: 3 miles , 4 km
2018/01/21 15:50 EGXZ 211550Z AUTO 15018KT 4200 PL BKN005/// 01/00 Q1006
 
EGCC - Manchester Intl, United Kingdom
Distance from station: SW 36mi, 58km
Updated: 21/01/2018 16:20
Light rain, Drizzle, Mostly cloudy
Light rain, Drizzle, Mostly cloudy
 Wind from SSE
Wind: SSE 5 mph , 7 km/h
Temperature: 3°C
Wind Chill: 1°C
Dew Point: 2°C
Humidity: 93%
Barometer: 1004 hPa
Summary: Light rain, Drizzle
Clouds: Mostly cloudy
Visibility: 2 miles , 4 km
Cloud details: Few Clouds 183 m
Mostly cloudy 305 m
2018/01/21 16:20 EGCC 211620Z 16004KT 090V240 4000 -RADZ FEW006 BKN010 03/02 Q1004 TEMPO BKN006
EGXE - Leeming RAF, United Kingdom
Distance from station: N 40mi, 65km
Updated: 21/01/2018 15:50
Rain, Overcast
Rain, Overcast
 Wind from SSE
Wind: SSE 15 mph , 24 km/h
Temperature: 1°C
Wind Chill: -4°C
Dew Point: 0°C
Humidity: 93%
Barometer: 1005 hPa
Summary: Rain
Clouds: Overcast
Visibility: 4 miles , 6 km
Cloud details: Overcast 122 m
2018/01/21 15:50 EGXE 211550Z AUTO 15013KT 6000 RA OVC004/// 01/00 Q1005